Hamilton, MT (59840)

4:15 AM MDT on August 29, 2016 (GMT -0600)
NonFedAWOS | | Change Station

Elev 3642 ft 46.25 °N, 114.13 °W | Updated 35 minutes ago

Clear
Clear
54 °F
Feels Like 54 °F
N
0
Wind Variable Wind from North
Gusts 0.0 mph

Today
High -- | Low -- °F
--% Chance of Precip.
Yesterday
High -- | Low -- °F
Precip. -- in
Pressure 30.17 in
Visibility 10.0 miles
Clouds Clear
Dew Point 39 °F
Humidity 58%
Rainfall in
Snow Depth Not available.
6:54 AM 8:19 PM
Waning Crescent, 9% visible
METAR KMSO 290953Z AUTO 00000KT 10SM CLR 11/03 A3021 RMK AO2 SLP214 T01060028
Pressure 30.17 in
Visibility 10.0 miles
Clouds Clear
Dew Point 39 °F
Humidity 58%
Rainfall in
Snow Depth Not available.
6:54 AM 8:19 PM
Waning Crescent, 9% visible
METAR KMSO 290953Z AUTO 00000KT 10SM CLR 11/03 A3021 RMK AO2 SLP214 T01060028

10-Day Weather Forecast

Almanac

Astronomy

Aug. 29, 2016 Rise Set
Actual Time
Civil Twilight
Nautical Twilight
Astronomical Twilight
Moon
Length of Visible Light
Length of Day
Tomorrow will be .
, % of the Moon is Illuminated

Today's Extremes

State Highs State Lows

Community

WunderPhotos

Upload Photos

1,935,798 photos uploaded!

WunderBlog® & News

Nearby

Air Quality

  Air Quality AQ Index Pollutant
Not available.

Snow Depth

Station Depth Elevation

Earthquake Activity

City Distance Mag. Time & Date
Minimum magnitude displayed is 2.5.

Coastal Water Temperatures

Place Temperature

Stations

Nearby Weather Stations

Station Location Temp. Windchill Dew Point Humidity Wind Precip. Elev Updated Type
                   

Watches & Warnings

There are currently no watches in effect.